This is the latest recevied weather packets stored in our database for station/object M0XDC. If no packets are shown the sender has not sent any weather packets the latest 10 day(s).
| Time | Temp. | Humidity | Pressure | Rain* | Wind** | Luminosity | Snow |
|---|---|---|---|---|---|---|---|
| 1787739523 | 21.11° C | 80% | 1011.8 hPa | 0 mm | - | - | - |
| 1787737723 | 20.56° C | 81% | 1011.6 hPa | 0 mm | - | - | - |
| 1787735923 | 20° C | 86% | 1011.7 hPa | 0 mm | - | - | - |
| 1787734123 | 20° C | 87% | 1011.7 hPa | 0 mm | - | - | - |
| 1787732323 | 19.44° C | 90% | 1011.7 hPa | 0 mm | - | - | - |
| 1787730523 | 18.33° C | 94% | 1011.4 hPa | 0.25 mm | - | - | - |
| 1787728723 | 17.78° C | 95% | 1011.4 hPa | 0.25 mm | - | - | - |
| 1787726923 | 17.78° C | 95% | 1011.3 hPa | 0 mm | - | - | - |
| 1787725123 | 17.22° C | 94% | 1011.1 hPa | 0 mm | - | - | - |
| 1787723323 | 16.67° C | 94% | 1011 hPa | 1.02 mm | - | - | - |
| 1787721523 | 16.67° C | 93% | 1010.8 hPa | 1.27 mm | - | - | - |
| 1787719723 | 17.22° C | 91% | 1010.7 hPa | 0.25 mm | - | - | - |
| 1787717923 | 17.22° C | 89% | 1010.4 hPa | 0 mm | - | - | - |
| 1787716123 | 16.67° C | 89% | 1010.3 hPa | 0 mm | - | - | - |
| 1787714323 | 16.67° C | 89% | 1010.3 hPa | 0 mm | - | - | - |
| 1787712523 | 16.11° C | 89% | 1010.5 hPa | 0 mm | - | - | - |
| 1787710723 | 16.11° C | 89% | 1010.5 hPa | 0 mm | - | - | - |
| 1787708923 | 15.56° C | 89% | 1010.3 hPa | 0 mm | - | - | - |
| 1787707123 | 15.56° C | 88% | 1010.7 hPa | 0 mm | - | - | - |
| 1787705323 | 16.11° C | 86% | 1010.8 hPa | 0 mm | - | - | - |
| 1787703523 | 17.22° C | 84% | 1011 hPa | 0 mm | - | - | - |
| 1787701723 | 17.22° C | 83% | 1010.9 hPa | 0 mm | - | - | - |
| 1787699923 | 17.22° C | 83% | 1011.1 hPa | 0 mm | - | - | - |
| 1787698123 | 17.22° C | 83% | 1010.9 hPa | 0 mm | - | - | - |
| 1787696390 | 17.22° C | 83% | 1011.1 hPa | 0 mm | - | - | - |
* Rain latest hour (hover to see other rain measurements)
** Current wind speed in m/s (hover to see current wind gust speed)